Terminal Aerodrome Forecast
Issued by NWS Huntsville, AL

Home | Current Version | Previous Version | Text Only | Print | Product List | Glossary On
Versions: 1 2 3 4 5 6 7 8 9 10 11 12 13 14 15
000
FTUS44 KHUN 201720
TAFHSV
TAF
KHSV 201720Z 2018/2118 07008KT P6SM SKC
     FM210000 08005KT P6SM SKC
     FM211500 13011KT P6SM SKC=

USA.gov is the U.S. government's official web portal to all federal, state and local government web resources and services.